createdAt,value
2019-04-23T00:01:36.333Z,36.97
2019-04-23T00:04:08.537Z,37.67
2019-04-23T00:06:43.218Z,36.67
2019-04-23T00:09:27.438Z,36.13
2019-04-23T00:11:48.239Z,37.70
2019-04-23T00:14:20.360Z,40.40
2019-04-23T00:16:52.605Z,38.70
2019-04-23T00:19:27.634Z,39.03
2019-04-23T00:21:57.008Z,39.27
2019-04-23T00:27:25.493Z,36.63
2019-04-23T00:29:57.630Z,40.03
2019-04-23T00:35:06.024Z,36.60
2019-04-23T00:39:57.834Z,39.37
2019-04-23T00:42:38.529Z,38.23
2019-04-23T00:45:03.419Z,38.23
2019-04-23T00:47:37.916Z,40.00
2019-04-23T00:50:12.820Z,37.13
2019-04-23T00:52:40.514Z,36.83
2019-04-23T00:55:15.916Z,37.03
2019-04-23T00:57:48.872Z,32.03
2019-04-23T01:00:26.017Z,32.23
2019-04-23T01:03:03.556Z,29.87
2019-04-23T01:05:29.408Z,30.97
2019-04-23T01:08:06.767Z,28.37
2019-04-23T01:10:34.568Z,26.87
2019-04-23T01:13:14.739Z,29.10
2019-04-23T01:18:38.225Z,27.83
2019-04-23T01:20:53.710Z,26.03
2019-04-23T01:23:41.842Z,25.73
2019-04-23T01:26:26.532Z,24.17
2019-04-23T01:29:03.423Z,23.47
2019-04-23T01:31:33.171Z,25.63
2019-04-23T01:34:13.549Z,25.97
2019-04-23T01:36:40.130Z,25.87
2019-04-23T01:39:17.813Z,22.27
2019-04-23T01:41:59.560Z,18.07
2019-04-23T01:44:32.753Z,18.00
2019-04-23T01:47:00.654Z,16.67
2019-04-23T01:49:37.684Z,17.90
2019-04-23T01:52:09.440Z,17.07
2019-04-23T01:54:38.483Z,17.50
2019-04-23T01:57:14.961Z,16.97
2019-04-23T01:59:49.383Z,16.53
2019-04-23T02:02:31.644Z,16.57
2019-04-23T02:05:01.108Z,17.60
2019-04-23T02:07:32.510Z,17.10
2019-04-23T02:12:35.721Z,19.90
2019-04-23T02:15:03.707Z,18.70
2019-04-23T02:17:38.665Z,19.03
2019-04-23T02:20:19.341Z,21.23
2019-04-23T02:23:09.833Z,25.20
2019-04-23T02:25:35.681Z,33.90
2019-04-23T02:28:06.050Z,40.03
2019-04-23T02:33:26.287Z,37.07
2019-04-23T02:35:50.179Z,34.67
2019-04-23T02:43:16.714Z,42.10
2019-04-23T02:56:15.284Z,85.43
2019-04-23T02:58:57.688Z,83.97
2019-04-23T03:03:49.668Z,87.40
2019-04-23T03:06:22.821Z,83.97
2019-04-23T03:08:46.646Z,69.90
2019-04-23T03:14:03.471Z,52.67
2019-04-23T03:37:48.951Z,52.13
2019-04-23T03:40:11.569Z,50.53
2019-04-23T03:45:36.912Z,51.07
2019-04-23T03:47:48.544Z,52.77
2019-04-23T03:50:32.553Z,48.63
2019-04-23T03:52:44.796Z,50.07
2019-04-23T03:55:48.002Z,43.93
2019-04-23T03:58:07.615Z,42.27
2019-04-23T04:00:39.639Z,40.70
2019-04-23T04:05:49.707Z,33.67
2019-04-23T04:08:18.437Z,33.87
2019-04-23T04:11:04.198Z,33.80
2019-04-23T04:13:31.050Z,34.27
2019-04-23T04:18:44.380Z,36.97
2019-04-23T04:21:09.931Z,35.80
2019-04-23T04:23:43.595Z,35.83
2019-04-23T04:26:08.982Z,37.50
2019-04-23T04:31:13.770Z,38.30
2019-04-23T04:34:00.667Z,39.27
2019-04-23T04:36:21.867Z,45.77
2019-04-23T04:44:17.089Z,47.10
2019-04-23T04:46:44.196Z,41.03
2019-04-23T04:49:01.716Z,34.73
2019-04-23T04:51:49.392Z,31.77
2019-04-23T04:56:55.018Z,34.67
2019-04-23T04:59:13.904Z,27.57
2019-04-23T05:01:58.540Z,27.83
2019-04-23T05:04:28.505Z,28.07
2019-04-23T05:12:18.923Z,27.43
2019-04-23T05:14:43.976Z,27.50
2019-04-23T05:17:16.046Z,28.40
2019-04-23T05:22:22.665Z,29.17
2019-04-23T05:24:48.286Z,28.80
2019-04-23T05:27:17.541Z,28.53
2019-04-23T05:30:02.944Z,29.07
2019-04-23T05:32:27.303Z,26.03
2019-04-23T05:35:03.510Z,24.17
2019-04-23T05:37:50.564Z,28.57
2019-04-23T05:40:24.178Z,27.20
2019-04-23T05:42:49.367Z,27.20
2019-04-23T05:45:15.867Z,27.53
2019-04-23T05:47:59.019Z,22.20
2019-04-23T05:50:35.786Z,22.37
2019-04-23T05:53:01.359Z,23.53
2019-04-23T05:55:27.263Z,28.90
2019-04-23T05:58:06.761Z,27.43
2019-04-23T06:00:44.932Z,33.93
2019-04-23T06:03:18.678Z,30.50
2019-04-23T06:08:34.589Z,41.93
2019-04-23T06:11:14.500Z,43.13
2019-04-23T06:13:35.583Z,41.80
2019-04-23T06:15:58.084Z,44.43
2019-04-23T06:18:40.608Z,47.30
2019-04-23T06:23:46.392Z,48.47
2019-04-23T06:26:26.880Z,39.70
2019-04-23T06:28:50.813Z,38.73
2019-04-23T06:31:27.740Z,37.50
2019-04-23T06:33:54.258Z,39.27
2019-04-23T06:41:41.695Z,29.57
2019-04-23T06:44:14.520Z,25.63
2019-04-23T06:49:20.116Z,25.53
2019-04-23T06:52:07.093Z,23.60
2019-04-23T06:54:37.872Z,21.60
2019-04-23T06:57:10.543Z,22.97
2019-04-23T06:59:33.553Z,23.47
2019-04-23T07:02:11.847Z,21.60
2019-04-23T07:04:49.857Z,25.80
2019-04-23T07:09:44.072Z,23.87
2019-04-23T07:12:25.770Z,23.07
2019-04-23T07:17:24.922Z,24.53
2019-04-23T07:19:56.650Z,23.57
2019-04-23T07:22:29.006Z,25.43
2019-04-23T07:27:30.334Z,25.13
2019-04-23T07:30:20.932Z,27.40
2019-04-23T07:32:44.716Z,26.93
2019-04-23T07:35:11.643Z,26.73
2019-04-23T07:37:57.072Z,24.50
2019-04-23T07:40:27.544Z,24.13
2019-04-23T07:45:53.128Z,22.23
2019-04-23T07:48:29.234Z,21.97
2019-04-23T07:51:14.103Z,21.73
2019-04-23T07:53:42.876Z,20.97
2019-04-23T07:56:11.601Z,23.77
2019-04-23T07:58:36.485Z,22.83
2019-04-23T08:01:13.793Z,22.00
2019-04-23T08:06:21.973Z,19.20
2019-04-23T08:08:56.354Z,20.97
2019-04-23T08:14:05.180Z,20.00
2019-04-23T08:16:40.234Z,21.10
2019-04-23T08:19:15.426Z,20.73
2019-04-23T08:21:37.874Z,20.73
2019-04-23T08:24:38.920Z,19.97
2019-04-23T08:27:18.146Z,19.13
2019-04-23T08:29:44.319Z,19.70
2019-04-23T08:32:18.574Z,19.03
2019-04-23T08:37:45.424Z,20.60
2019-04-23T08:40:01.886Z,20.20
2019-04-23T08:42:45.754Z,20.40
2019-04-23T08:45:27.799Z,20.20
2019-04-23T08:48:15.444Z,19.53
2019-04-23T08:50:46.705Z,17.87
2019-04-23T08:55:50.046Z,18.47
2019-04-23T08:58:27.309Z,18.57
2019-04-23T09:06:00.645Z,17.33
2019-04-23T09:08:32.903Z,19.20
2019-04-23T09:11:27.570Z,19.57
2019-04-23T09:16:15.574Z,19.90
2019-04-23T09:18:46.092Z,18.50
2019-04-23T09:21:24.000Z,17.87
2019-04-23T09:23:54.012Z,19.17
2019-04-23T09:26:22.429Z,19.17
2019-04-23T09:29:47.471Z,19.53
2019-04-23T09:32:14.855Z,19.00
2019-04-23T09:34:26.201Z,19.50
2019-04-23T09:37:06.195Z,19.83
2019-04-23T09:39:45.867Z,20.47
2019-04-23T09:42:22.625Z,21.90
2019-04-23T09:44:58.373Z,22.47
2019-04-23T09:47:53.493Z,22.10
2019-04-23T09:50:26.448Z,21.67
2019-04-23T10:03:02.424Z,22.17
2019-04-23T10:05:30.910Z,23.53
2019-04-23T10:08:02.911Z,23.13
2019-04-23T10:10:25.987Z,22.20
2019-04-23T10:12:59.946Z,22.13
2019-04-23T10:15:36.358Z,21.70
2019-04-23T10:18:04.607Z,21.43
2019-04-23T10:20:36.390Z,21.40
2019-04-23T10:23:08.352Z,22.10
2019-04-23T10:25:40.321Z,21.53
2019-04-23T10:28:25.073Z,20.90
2019-04-23T10:30:56.908Z,21.30
2019-04-23T10:33:29.634Z,21.87
2019-04-23T10:36:08.485Z,21.57
2019-04-23T10:38:36.253Z,22.70
2019-04-23T10:41:06.924Z,22.07
2019-04-23T10:43:40.001Z,22.10
2019-04-23T10:46:43.120Z,25.50
2019-04-23T10:49:41.944Z,22.53
2019-04-23T10:57:03.918Z,21.00
2019-04-23T10:59:38.917Z,20.53
2019-04-23T11:05:00.513Z,20.43
2019-04-23T11:09:55.741Z,19.73
2019-04-23T11:12:42.081Z,20.43
2019-04-23T11:17:52.034Z,20.07
2019-04-23T11:20:25.367Z,20.70
2019-04-23T11:28:02.550Z,21.53
2019-04-23T11:30:32.403Z,22.53
2019-04-23T11:33:14.795Z,21.23
2019-04-23T11:35:49.050Z,22.33
2019-04-23T11:41:09.082Z,21.30
2019-04-23T11:43:13.162Z,21.27
2019-04-23T11:51:26.314Z,21.77
2019-04-23T11:53:29.694Z,21.63
2019-04-23T11:55:55.030Z,20.23
2019-04-23T12:01:11.648Z,19.33
2019-04-23T12:03:46.856Z,19.70
2019-04-23T12:06:51.012Z,19.50
2019-04-23T12:09:09.945Z,19.83
2019-04-23T12:14:37.290Z,19.53
2019-04-23T12:17:11.214Z,19.97
2019-04-23T12:45:27.128Z,17.10
2019-04-23T12:47:58.364Z,17.43
2019-04-23T12:58:03.816Z,17.13
2019-04-23T13:03:09.821Z,19.27
2019-04-23T13:05:32.782Z,19.30
2019-04-23T13:08:26.898Z,18.43
2019-04-23T13:10:48.069Z,18.23
2019-04-23T13:15:53.703Z,18.20
2019-04-23T13:18:31.641Z,19.23
2019-04-23T13:21:01.507Z,18.23
2019-04-23T13:25:59.568Z,18.83
2019-04-23T13:28:37.666Z,16.57
2019-04-23T13:31:12.498Z,19.03
2019-04-23T13:33:44.123Z,18.27
2019-04-23T13:36:29.091Z,19.20
2019-04-23T13:41:20.400Z,18.60
2019-04-23T13:43:47.883Z,18.07
2019-04-23T13:46:32.465Z,18.97
2019-04-23T13:49:03.897Z,19.20
2019-04-23T13:51:33.825Z,17.50
2019-04-23T13:54:08.174Z,18.23
2019-04-23T13:59:36.812Z,18.13
2019-04-23T14:02:10.760Z,17.43
2019-04-23T14:07:05.853Z,18.80
2019-04-23T14:12:17.681Z,18.37
2019-04-23T14:14:55.948Z,18.33
2019-04-23T14:17:38.045Z,17.27
2019-04-23T14:20:05.050Z,19.83
2019-04-23T14:22:52.600Z,17.60
2019-04-23T14:27:43.336Z,19.57
2019-04-23T14:32:48.703Z,17.20
2019-04-23T14:35:40.535Z,22.27
2019-04-23T14:38:11.323Z,17.33
2019-04-23T14:40:34.347Z,20.00
2019-04-23T14:43:06.727Z,18.23
2019-04-23T14:46:02.596Z,17.80
2019-04-23T14:48:08.902Z,17.77
2019-04-23T14:50:41.243Z,20.67
2019-04-23T14:53:24.459Z,17.90
2019-04-23T15:01:24.425Z,16.87
2019-04-23T15:03:49.009Z,17.83
2019-04-23T15:06:26.118Z,17.27
2019-04-23T15:09:00.649Z,18.07
2019-04-23T15:13:49.431Z,20.33
2019-04-23T15:22:05.306Z,18.67
2019-04-23T15:24:19.433Z,17.60
2019-04-23T15:29:02.913Z,17.20
2019-04-23T15:32:03.070Z,17.10
2019-04-23T15:34:23.577Z,18.30
2019-04-23T15:37:15.664Z,17.27
2019-04-23T15:39:42.550Z,17.10
2019-04-23T15:44:41.912Z,17.73
2019-04-23T15:47:19.944Z,17.63
2019-04-23T15:49:55.491Z,19.03
2019-04-23T15:52:30.345Z,20.97
2019-04-23T15:54:56.749Z,18.67
2019-04-23T15:58:01.633Z,19.73
2019-04-23T15:59:58.712Z,20.53
2019-04-23T16:02:08.397Z,18.67
2019-04-23T16:04:39.920Z,20.43
2019-04-23T16:07:21.502Z,19.93
2019-04-23T16:10:14.512Z,19.63
2019-04-23T16:12:54.821Z,22.00
2019-04-23T16:15:19.345Z,20.40
2019-04-23T16:17:53.423Z,25.40
2019-04-23T16:20:37.498Z,25.93
2019-04-23T16:22:59.318Z,21.07
2019-04-23T16:25:26.525Z,20.70
2019-04-23T16:28:12.863Z,21.63
2019-04-23T16:30:40.808Z,20.37
2019-04-23T16:33:11.268Z,21.33
2019-04-23T16:38:36.678Z,28.37
2019-04-23T16:40:58.917Z,23.80
2019-04-23T16:43:27.921Z,28.63
2019-04-23T16:46:13.119Z,22.63
2019-04-23T16:48:49.242Z,23.83
2019-04-23T16:53:59.166Z,21.10
2019-04-23T16:59:12.447Z,21.43
2019-04-23T17:01:30.335Z,21.47
2019-04-23T17:04:11.016Z,20.60
2019-04-23T17:06:46.589Z,21.87
2019-04-23T17:09:18.539Z,27.30
2019-04-23T17:14:33.590Z,31.07
2019-04-23T17:16:49.884Z,29.97
2019-04-23T17:22:04.004Z,44.03
2019-04-23T17:24:56.493Z,30.07
2019-04-23T17:27:16.659Z,30.90
2019-04-23T17:29:41.546Z,33.80
2019-04-23T17:32:14.939Z,42.27
2019-04-23T17:35:20.687Z,33.07
2019-04-23T17:37:38.622Z,29.40
2019-04-23T17:40:18.165Z,28.47
2019-04-23T17:42:56.982Z,27.37
2019-04-23T17:48:13.485Z,25.17
2019-04-23T17:53:35.269Z,24.80
2019-04-23T17:56:03.690Z,23.40
2019-04-23T18:03:45.599Z,21.17
2019-04-23T18:06:21.593Z,22.00
2019-04-23T18:08:43.206Z,19.83
2019-04-23T18:13:50.452Z,20.07
2019-04-23T18:16:35.073Z,21.23
2019-04-23T18:19:03.337Z,20.97
2019-04-23T18:21:44.002Z,21.27
2019-04-23T18:24:16.714Z,20.70
2019-04-23T18:26:47.068Z,21.60
2019-04-23T18:29:31.628Z,22.23
2019-04-23T18:32:05.857Z,21.83
2019-04-23T18:34:56.921Z,21.77
2019-04-23T18:37:17.936Z,21.90
2019-04-23T18:39:49.943Z,21.50
2019-04-23T18:42:29.652Z,21.73
2019-04-23T18:45:07.780Z,18.70
2019-04-23T18:47:37.813Z,20.67
2019-04-23T18:50:22.984Z,18.53
2019-04-23T18:52:49.837Z,17.53
2019-04-23T18:55:14.571Z,17.33
2019-04-23T18:57:46.938Z,16.37
2019-04-23T19:00:24.919Z,17.40
2019-04-23T19:02:55.102Z,16.67
2019-04-23T19:08:10.655Z,15.20
2019-04-23T19:10:48.657Z,15.97
2019-04-23T19:13:25.522Z,15.80
2019-04-23T19:15:48.797Z,15.20
2019-04-23T19:18:35.625Z,14.03
2019-04-23T19:21:08.703Z,14.17
2019-04-23T19:23:42.835Z,14.23
2019-04-23T19:26:07.986Z,13.50
2019-04-23T19:34:02.913Z,12.90
2019-04-23T19:36:40.167Z,12.53
2019-04-23T19:39:11.836Z,12.87
2019-04-23T19:41:57.496Z,12.77
2019-04-23T19:46:57.627Z,12.50
2019-04-23T19:54:39.338Z,11.60
2019-04-23T20:02:07.371Z,10.47
2019-04-23T20:07:22.742Z,10.50
2019-04-23T20:12:13.492Z,10.80
2019-04-23T20:14:52.173Z,10.17
2019-04-23T20:20:18.387Z,10.00
2019-04-23T20:22:48.963Z,10.20
2019-04-23T20:25:43.863Z,9.87
2019-04-23T20:27:58.325Z,9.60
2019-04-23T20:35:56.649Z,9.73
2019-04-23T20:41:14.682Z,9.87
2019-04-23T20:43:50.038Z,8.63
2019-04-23T20:46:14.811Z,9.33
2019-04-23T20:48:53.686Z,9.57
2019-04-23T20:51:24.494Z,9.27
2019-04-23T20:53:59.788Z,9.53
2019-04-23T20:56:34.045Z,12.20
2019-04-23T20:59:03.054Z,10.00
2019-04-23T21:01:46.744Z,8.80
2019-04-23T21:04:13.263Z,9.40
2019-04-23T21:12:29.648Z,8.53
2019-04-23T21:14:55.728Z,8.53
2019-04-23T21:17:05.345Z,8.40
2019-04-23T21:19:50.450Z,8.43
2019-04-23T21:24:53.116Z,8.90
2019-04-23T21:27:38.692Z,9.17
2019-04-23T21:30:06.781Z,9.00
2019-04-23T21:32:56.072Z,8.03
2019-04-23T21:35:30.423Z,8.20
2019-04-23T21:37:54.099Z,8.53
2019-04-23T21:43:32.406Z,8.73
2019-04-23T21:45:56.866Z,8.37
2019-04-23T21:48:36.740Z,8.80
2019-04-23T21:50:57.544Z,8.70
2019-04-23T21:53:24.259Z,9.30
2019-04-23T21:56:05.601Z,9.00
2019-04-23T21:58:38.908Z,8.40
2019-04-23T22:01:27.463Z,8.33
2019-04-23T22:04:13.218Z,8.53
2019-04-23T22:19:14.937Z,8.80
2019-04-23T22:24:11.957Z,8.70
2019-04-23T22:26:45.313Z,9.20
2019-04-23T22:29:26.064Z,8.93
2019-04-23T22:32:04.399Z,8.00
2019-04-23T22:34:30.889Z,8.17
2019-04-23T22:37:10.972Z,7.73
2019-04-23T22:39:35.620Z,8.23
2019-04-23T22:42:22.364Z,8.33
2019-04-23T22:47:07.154Z,10.00
2019-04-23T22:50:06.129Z,12.27
2019-04-23T22:52:23.007Z,15.37
2019-04-23T22:55:02.390Z,14.73
2019-04-23T23:00:14.394Z,15.00
2019-04-23T23:03:11.666Z,14.13
2019-04-23T23:08:11.518Z,14.10
2019-04-23T23:10:39.608Z,13.30
2019-04-23T23:13:15.091Z,12.40
2019-04-23T23:18:19.814Z,11.73
2019-04-23T23:21:04.093Z,12.87
2019-04-23T23:26:14.221Z,13.93
2019-04-23T23:28:41.110Z,15.73
2019-04-23T23:31:10.030Z,14.77
2019-04-23T23:33:47.177Z,14.00
2019-04-23T23:41:26.512Z,12.47
2019-04-23T23:44:20.821Z,11.40
2019-04-23T23:46:37.590Z,11.20
2019-04-23T23:49:11.423Z,10.10
2019-04-23T23:54:13.991Z,11.43
2019-04-23T23:57:07.927Z,12.50
2019-04-23T23:59:26.935Z,14.13
